Time;durP1;ratioP1;P1;durP2;ratioP2;P2;SDS_P1;SDS_P2;PMS_P1;PMS_P2;Temp;Humidity;BMP_temperature;BMP_pressure;BME280_temperature;BME280_humidity;BME280_pressure;Samples;Min_cycle;Max_cycle;Signal;HPM_P1;HPM_P2
2022/07/17 00:00:52;;;;;;;4.82;1.70;;;14.20;99.90;;;;;;4862569;29;20542;-77
2022/07/17 00:03:18;;;;;;;5.95;1.70;;;14.20;99.90;;;;;;4865132;29;20045;-78
2022/07/17 00:05:45;;;;;;;3.97;1.60;;;14.10;99.90;;;;;;4863374;29;20379;-76
2022/07/17 00:08:11;;;;;;;4.82;1.98;;;14.00;99.90;;;;;;4849631;29;20100;-79
2022/07/17 00:10:39;;;;;;;3.80;1.55;;;14.00;99.90;;;;;;4876968;29;20037;-77
2022/07/17 00:13:05;;;;;;;4.38;2.20;;;14.00;99.90;;;;;;4860309;29;20041;-78
2022/07/17 00:15:31;;;;;;;5.65;1.67;;;13.90;99.90;;;;;;4865446;29;20059;-84
2022/07/17 00:17:58;;;;;;;3.60;1.45;;;13.90;99.90;;;;;;4865715;29;20131;-84
2022/07/17 00:20:25;;;;;;;3.75;1.60;;;13.80;99.90;;;;;;4847021;29;20117;-84
2022/07/17 00:22:52;;;;;;;4.05;1.48;;;13.70;99.90;;;;;;4862547;29;20084;-85
2022/07/17 00:25:17;;;;;;;3.53;1.67;;;13.70;99.90;;;;;;4862514;29;20049;-78
2022/07/17 00:27:43;;;;;;;6.82;1.80;;;13.70;99.90;;;;;;4864257;29;20100;-76
2022/07/17 00:30:09;;;;;;;1.98;1.25;;;13.60;99.90;;;;;;4863708;29;20037;-76
2022/07/17 00:32:35;;;;;;;3.67;1.58;;;13.60;99.90;;;;;;4848865;29;20046;-76
2022/07/17 00:35:02;;;;;;;2.95;1.50;;;13.60;99.90;;;;;;4874897;29;20107;-77
2022/07/17 00:37:27;;;;;;;3.75;1.55;;;13.60;99.90;;;;;;4848949;29;20053;-77
2022/07/17 00:39:54;;;;;;;2.90;1.27;;;13.50;99.90;;;;;;4857750;29;20041;-84
2022/07/17 00:42:20;;;;;;;5.65;2.35;;;13.50;99.90;;;;;;4862184;29;20045;-84
2022/07/17 00:44:45;;;;;;;5.30;1.70;;;13.50;99.90;;;;;;4861726;29;20057;-84
2022/07/17 00:47:18;;;;;;;4.03;1.70;;;13.50;99.90;;;;;;4864452;29;20513;-84
2022/07/17 00:49:44;;;;;;;7.50;1.38;;;13.50;99.90;;;;;;4880632;29;20048;-85
2022/07/17 00:52:12;;;;;;;6.30;2.25;;;13.50;99.90;;;;;;4848957;29;20513;-85
2022/07/17 00:54:39;;;;;;;4.68;1.70;;;13.50;99.90;;;;;;4880733;29;20124;-84
2022/07/17 00:57:07;;;;;;;3.80;1.83;;;13.50;99.90;;;;;;4872549;29;20120;-76
2022/07/17 00:59:34;;;;;;;3.75;1.50;;;13.40;99.90;;;;;;4862597;29;20049;-77
2022/07/17 01:02:07;;;;;;;4.32;1.60;;;13.40;99.90;;;;;;4864645;29;20041;-78
2022/07/17 01:04:34;;;;;;;7.70;1.70;;;13.30;99.90;;;;;;4849248;29;20044;-78
2022/07/17 01:07:00;;;;;;;4.22;1.70;;;13.30;99.90;;;;;;4851652;29;20109;-77
2022/07/17 01:09:30;;;;;;;4.07;1.60;;;13.30;99.90;;;;;;4860181;29;20173;-77
2022/07/17 01:11:56;;;;;;;4.30;1.75;;;13.00;99.90;;;;;;4866957;29;20045;-76
2022/07/17 01:14:23;;;;;;;3.80;1.52;;;13.20;99.90;;;;;;4831079;29;20502;-77
2022/07/17 01:16:50;;;;;;;2.97;1.80;;;13.20;99.90;;;;;;4858017;29;20053;-77
2022/07/17 01:19:16;;;;;;;3.00;1.58;;;13.10;99.90;;;;;;4864848;29;20045;-77
2022/07/17 01:21:44;;;;;;;2.78;1.55;;;13.00;99.90;;;;;;4889522;29;20021;-83
2022/07/17 01:24:10;;;;;;;3.28;1.70;;;13.00;99.90;;;;;;4869670;29;20029;-83
2022/07/17 01:26:36;;;;;;;5.07;1.70;;;12.90;99.90;;;;;;4881082;29;20030;-83
2022/07/17 01:29:03;;;;;;;3.90;1.80;;;12.90;99.90;;;;;;4854625;29;20437;-77
2022/07/17 01:31:29;;;;;;;5.65;1.92;;;12.90;99.90;;;;;;4867375;29;20096;-78
2022/07/17 01:33:56;;;;;;;3.95;1.88;;;12.90;99.90;;;;;;4863016;29;20044;-76
2022/07/17 01:36:23;;;;;;;3.67;1.60;;;12.80;99.90;;;;;;4876194;29;20112;-77
2022/07/17 01:38:49;;;;;;;4.90;2.00;;;12.80;99.90;;;;;;4859781;29;20132;-78
2022/07/17 01:41:15;;;;;;;4.68;2.30;;;12.80;99.90;;;;;;4871543;29;20458;-76
2022/07/17 01:43:41;;;;;;;3.10;1.77;;;12.70;99.90;;;;;;4852107;29;20168;-77
2022/07/17 01:46:07;;;;;;;4.15;1.88;;;12.60;99.90;;;;;;4875748;29;20160;-77
2022/07/17 01:48:32;;;;;;;4.22;2.00;;;12.60;99.90;;;;;;4847801;29;20041;-84
2022/07/17 01:50:58;;;;;;;4.25;1.95;;;12.60;99.90;;;;;;4861844;29;20046;-83
2022/07/17 01:53:24;;;;;;;3.05;1.90;;;12.60;99.90;;;;;;4850563;29;20048;-84
2022/07/17 01:55:50;;;;;;;3.35;1.70;;;12.50;99.90;;;;;;4848025;29;20398;-84
2022/07/17 01:58:16;;;;;;;3.17;1.85;;;12.50;99.90;;;;;;4876266;29;20402;-83
2022/07/17 02:00:42;;;;;;;6.30;2.08;;;12.50;99.90;;;;;;4861308;29;20106;-84
2022/07/17 02:03:08;;;;;;;4.63;2.65;;;12.50;99.90;;;;;;4845298;29;20049;-83
2022/07/17 02:05:34;;;;;;;3.40;2.10;;;12.50;99.90;;;;;;4860767;29;20056;-84
2022/07/17 02:07:59;;;;;;;3.28;2.20;;;12.50;99.90;;;;;;4862284;29;20109;-84
2022/07/17 02:10:25;;;;;;;4.05;2.08;;;12.40;99.90;;;;;;4848778;29;20099;-83
2022/07/17 02:12:51;;;;;;;3.72;2.22;;;12.40;99.90;;;;;;4864488;29;20045;-84
2022/07/17 02:15:17;;;;;;;2.63;1.90;;;12.40;99.90;;;;;;4856367;29;20041;-77
2022/07/17 02:17:42;;;;;;;4.68;2.20;;;12.30;99.90;;;;;;4872248;29;20423;-77
2022/07/17 02:20:09;;;;;;;3.20;2.00;;;12.70;99.90;;;;;;4860677;29;20045;-77
2022/07/17 02:22:36;;;;;;;3.92;2.45;;;12.20;99.90;;;;;;4836424;29;20080;-84
2022/07/17 02:25:02;;;;;;;6.13;2.28;;;12.20;99.90;;;;;;4874086;29;20093;-83
2022/07/17 02:27:28;;;;;;;4.90;2.08;;;12.10;99.90;;;;;;4864432;29;20076;-84
2022/07/17 02:29:53;;;;;;;4.68;2.17;;;12.00;99.90;;;;;;4876850;29;20077;-77
2022/07/17 02:32:19;;;;;;;5.30;2.08;;;12.00;99.90;;;;;;4858982;29;20047;-77
2022/07/17 02:34:45;;;;;;;3.13;2.05;;;12.00;99.90;;;;;;4834198;29;20038;-76
2022/07/17 02:37:10;;;;;;;4.72;2.03;;;11.90;99.90;;;;;;4862517;29;20046;-84
2022/07/17 02:39:36;;;;;;;4.25;1.98;;;11.90;99.90;;;;;;4864421;29;20044;-85
2022/07/17 02:42:02;;;;;;;3.13;2.10;;;11.90;99.90;;;;;;4879076;29;20045;-84
2022/07/17 02:44:28;;;;;;;3.90;1.92;;;11.80;99.90;;;;;;4879226;29;20132;-85
2022/07/17 02:46:53;;;;;;;5.20;2.40;;;11.80;99.90;;;;;;4863847;29;20041;-83
2022/07/17 02:49:19;;;;;;;4.53;2.20;;;11.80;99.90;;;;;;4855391;29;20415;-77
2022/07/17 02:51:45;;;;;;;4.35;2.25;;;11.70;99.90;;;;;;4862744;29;20076;-84
2022/07/17 02:54:10;;;;;;;3.30;2.00;;;11.70;99.90;;;;;;4872783;29;20124;-84
2022/07/17 02:56:36;;;;;;;4.70;2.22;;;11.60;99.90;;;;;;4856707;29;20046;-84
2022/07/17 02:59:02;;;;;;;4.25;2.25;;;11.60;99.90;;;;;;4852894;29;20378;-77
2022/07/17 03:01:27;;;;;;;2.90;2.03;;;11.60;99.90;;;;;;4858414;29;20045;-77
2022/07/17 03:03:53;;;;;;;4.28;2.22;;;11.60;99.90;;;;;;4877036;29;20045;-77
2022/07/17 03:06:19;;;;;;;3.10;2.28;;;11.60;99.90;;;;;;4876840;29;20045;-77
2022/07/17 03:08:44;;;;;;;3.13;2.10;;;11.60;99.90;;;;;;4862574;29;20043;-77
2022/07/17 03:11:10;;;;;;;3.53;2.22;;;11.60;99.90;;;;;;4843628;29;20402;-77
2022/07/17 03:13:36;;;;;;;2.97;2.17;;;11.60;99.90;;;;;;4859392;29;20497;-77
2022/07/17 03:16:01;;;;;;;3.25;1.98;;;11.60;99.90;;;;;;4871360;29;20041;-76
2022/07/17 03:18:27;;;;;;;5.55;2.20;;;11.60;99.90;;;;;;4880704;29;20053;-77
2022/07/17 03:20:53;;;;;;;4.70;1.90;;;11.50;99.90;;;;;;4849471;29;20093;-76
2022/07/17 03:23:18;;;;;;;3.97;2.00;;;11.50;99.90;;;;;;4865487;29;20173;-78
2022/07/17 03:25:44;;;;;;;2.20;1.92;;;11.50;99.90;;;;;;4866915;29;20053;-76
2022/07/17 03:28:10;;;;;;;5.55;2.20;;;11.50;99.90;;;;;;4863364;29;20041;-76
2022/07/17 03:30:35;;;;;;;6.25;2.00;;;11.50;99.90;;;;;;4849746;29;20052;-77
2022/07/17 03:33:01;;;;;;;5.15;1.98;;;11.50;99.90;;;;;;4835768;29;20486;-76
2022/07/17 03:35:27;;;;;;;4.30;2.50;;;11.60;99.90;;;;;;4835780;29;20200;-78
2022/07/17 03:37:53;;;;;;;6.75;2.78;;;11.50;99.90;;;;;;4858669;29;20417;-77
2022/07/17 03:40:18;;;;;;;3.22;2.28;;;11.50;99.90;;;;;;4850142;29;20051;-77
2022/07/17 03:42:44;;;;;;;4.32;2.50;;;11.50;99.90;;;;;;4851128;29;20104;-77
2022/07/17 03:45:10;;;;;;;5.28;2.47;;;11.50;99.90;;;;;;4849363;29;20562;-78
2022/07/17 03:47:36;;;;;;;3.63;2.63;;;11.50;99.90;;;;;;4832296;29;20044;-78
2022/07/17 03:50:02;;;;;;;5.15;2.40;;;11.20;99.90;;;;;;4848678;29;20048;-77
2022/07/17 03:52:28;;;;;;;4.05;2.75;;;11.40;99.90;;;;;;4847699;29;20033;-78
2022/07/17 03:54:53;;;;;;;5.00;2.47;;;11.40;99.90;;;;;;4895003;29;20108;-78
2022/07/17 03:57:19;;;;;;;6.07;2.90;;;11.40;99.90;;;;;;4854840;29;20132;-77
2022/07/17 03:59:45;;;;;;;7.18;2.70;;;11.40;99.90;;;;;;4876077;29;20048;-78
2022/07/17 04:02:11;;;;;;;3.20;2.33;;;11.50;99.90;;;;;;4857223;29;20081;-77
2022/07/17 04:04:36;;;;;;;4.10;2.38;;;11.70;99.90;;;;;;4855919;29;20049;-76
2022/07/17 04:07:02;;;;;;;3.25;2.35;;;11.50;99.90;;;;;;4866047;29;20049;-76
2022/07/17 04:09:28;;;;;;;3.50;2.63;;;11.50;99.90;;;;;;4864865;29;20502;-76
2022/07/17 04:11:53;;;;;;;5.10;2.78;;;11.60;99.90;;;;;;4848925;29;20067;-78
2022/07/17 04:14:19;;;;;;;3.90;2.80;;;11.60;99.90;;;;;;4842920;29;20041;-83
2022/07/17 04:16:45;;;;;;;4.55;2.55;;;11.70;99.90;;;;;;4876476;29;20077;-85
2022/07/17 04:19:10;;;;;;;4.53;2.63;;;11.70;99.90;;;;;;4852752;29;20041;-76
2022/07/17 04:21:36;;;;;;;5.57;2.80;;;11.70;99.90;;;;;;4840804;29;20491;-78
2022/07/17 04:24:02;;;;;;;5.40;2.80;;;11.70;99.90;;;;;;4869861;29;20053;-77
2022/07/17 04:26:28;;;;;;;4.75;2.58;;;11.70;99.90;;;;;;4851151;29;20128;-77
2022/07/17 04:28:53;;;;;;;4.97;2.50;;;11.80;99.90;;;;;;4849542;29;20116;-85
2022/07/17 04:31:21;;;;;;;3.47;2.47;;;11.80;99.90;;;;;;4880696;29;20040;-85
2022/07/17 04:33:46;;;;;;;4.45;2.28;;;11.80;99.90;;;;;;4896230;29;20045;-84
2022/07/17 04:36:12;;;;;;;3.13;2.47;;;11.90;99.90;;;;;;4861627;29;20463;-84
2022/07/17 04:38:38;;;;;;;5.00;2.80;;;11.90;99.90;;;;;;4847853;29;20049;-85
2022/07/17 04:41:04;;;;;;;4.80;2.60;;;12.00;99.90;;;;;;4879776;29;20044;-84
2022/07/17 04:43:29;;;;;;;5.88;2.30;;;12.00;99.90;;;;;;4866045;29;20049;-84
2022/07/17 04:45:55;;;;;;;8.57;2.33;;;12.00;99.90;;;;;;4865331;29;20112;-83
2022/07/17 04:48:20;;;;;;;4.15;2.10;;;12.10;99.90;;;;;;4875085;29;20049;-83
2022/07/17 04:50:46;;;;;;;3.60;2.03;;;12.10;99.90;;;;;;4862247;29;20046;-84
2022/07/17 04:53:13;;;;;;;5.10;2.33;;;12.20;99.90;;;;;;4862082;29;20049;-84
2022/07/17 04:55:39;;;;;;;5.20;2.60;;;12.20;99.90;;;;;;4859413;29;20494;-85
2022/07/17 04:58:04;;;;;;;6.18;2.65;;;12.30;99.90;;;;;;4880938;29;20074;-85
2022/07/17 05:00:30;;;;;;;5.43;2.53;;;12.30;99.90;;;;;;4864989;29;20048;-84
2022/07/17 05:02:56;;;;;;;4.93;2.55;;;12.40;99.90;;;;;;4880854;29;20454;-83
2022/07/17 05:05:22;;;;;;;9.18;2.22;;;12.40;99.90;;;;;;4880208;29;20045;-76
2022/07/17 05:07:48;;;;;;;6.13;2.60;;;12.50;99.90;;;;;;4876510;29;22059;-77
2022/07/17 05:10:14;;;;;;;4.15;2.30;;;12.50;99.90;;;;;;4855851;29;20483;-77
2022/07/17 05:12:40;;;;;;;7.45;1.90;;;12.50;99.90;;;;;;4871769;29;20056;-77
2022/07/17 05:15:06;;;;;;;10.02;2.38;;;12.50;99.90;;;;;;4856835;29;20040;-77
2022/07/17 05:17:31;;;;;;;3.70;2.20;;;12.60;99.90;;;;;;4862366;29;20136;-77
2022/07/17 05:19:57;;;;;;;4.70;1.85;;;12.60;99.90;;;;;;4842942;29;20506;-77
2022/07/17 05:22:23;;;;;;;4.55;2.15;;;12.70;99.90;;;;;;4862339;29;20040;-77
2022/07/17 05:24:48;;;;;;;6.43;2.15;;;12.70;99.90;;;;;;4836787;29;20145;-84
2022/07/17 05:27:14;;;;;;;6.45;2.70;;;12.80;99.90;;;;;;4851584;29;20053;-85
2022/07/17 05:29:40;;;;;;;7.32;2.53;;;12.80;99.90;;;;;;4871260;29;20045;-84
2022/07/17 05:32:05;;;;;;;5.07;2.10;;;12.80;99.90;;;;;;4873550;29;20065;-82
2022/07/17 05:34:31;;;;;;;4.55;1.98;;;12.90;99.90;;;;;;4861409;29;20045;-83
2022/07/17 05:36:57;;;;;;;3.70;1.80;;;12.90;99.90;;;;;;4861025;29;20403;-84
2022/07/17 05:39:23;;;;;;;5.63;2.13;;;13.00;99.90;;;;;;4861729;29;20046;-85
2022/07/17 05:41:48;;;;;;;9.13;2.28;;;13.00;99.90;;;;;;4863789;29;20053;-84
2022/07/17 05:44:14;;;;;;;4.70;2.00;;;13.10;99.90;;;;;;4880391;29;20486;-83
2022/07/17 05:46:40;;;;;;;4.75;2.20;;;13.20;99.90;;;;;;4895728;29;20053;-85
2022/07/17 05:49:06;;;;;;;2.95;1.80;;;13.20;99.90;;;;;;4865003;29;20072;-83
2022/07/17 05:51:31;;;;;;;6.60;1.75;;;13.30;99.90;;;;;;4864153;29;20499;-85
2022/07/17 05:53:57;;;;;;;8.85;2.08;;;13.30;99.90;;;;;;4849769;29;20033;-83
2022/07/17 05:56:23;;;;;;;5.85;1.60;;;13.40;99.90;;;;;;4881065;29;20045;-84
2022/07/17 05:58:49;;;;;;;5.22;1.77;;;13.50;99.90;;;;;;4863481;29;20045;-83
2022/07/17 06:01:14;;;;;;;5.30;1.85;;;13.60;99.90;;;;;;4871293;29;20191;-83
2022/07/17 06:03:40;;;;;;;3.88;1.73;;;13.60;99.90;;;;;;4859033;29;20048;-84
2022/07/17 06:06:06;;;;;;;4.10;1.80;;;13.60;99.90;;;;;;4848204;29;20033;-84
2022/07/17 06:08:32;;;;;;;3.15;1.58;;;13.70;99.90;;;;;;4868151;29;20185;-83
2022/07/17 06:10:57;;;;;;;5.78;1.90;;;13.70;99.90;;;;;;4879280;29;20041;-83
2022/07/17 06:13:23;;;;;;;4.75;1.95;;;13.70;99.90;;;;;;4863104;29;20037;-83
2022/07/17 06:15:49;;;;;;;4.93;1.90;;;13.70;99.90;;;;;;4870872;29;20052;-84
2022/07/17 06:18:14;;;;;;;5.63;2.15;;;13.80;99.90;;;;;;4877206;29;20153;-83
2022/07/17 06:20:40;;;;;;;5.53;1.67;;;13.80;99.90;;;;;;4874644;29;20044;-84
2022/07/17 06:23:06;;;;;;;6.90;1.98;;;13.80;99.90;;;;;;4879027;29;20077;-83
2022/07/17 06:25:31;;;;;;;8.35;2.03;;;13.80;99.90;;;;;;4852157;29;20060;-82
2022/07/17 06:27:57;;;;;;;3.17;1.85;;;13.90;99.90;;;;;;4853436;29;20053;-83
2022/07/17 06:30:22;;;;;;;4.50;1.67;;;13.90;99.90;;;;;;4861295;29;20562;-83
2022/07/17 06:32:48;;;;;;;7.70;1.83;;;13.90;99.90;;;;;;4868916;29;20056;-83
2022/07/17 06:35:14;;;;;;;4.70;1.70;;;14.00;99.90;;;;;;4860589;29;20050;-81
2022/07/17 06:37:39;;;;;;;4.70;1.73;;;14.10;99.90;;;;;;4864206;29;20430;-82
2022/07/17 06:40:07;;;;;;;6.43;2.00;;;14.30;99.90;;;;;;4860640;29;20105;-82
2022/07/17 06:42:33;;;;;;;8.23;1.95;;;14.40;99.90;;;;;;4875801;29;20064;-82
2022/07/17 06:44:58;;;;;;;4.93;1.75;;;14.60;99.90;;;;;;4859583;29;20058;-83
2022/07/17 06:47:24;;;;;;;4.85;1.90;;;14.80;99.90;;;;;;4876333;29;20053;-74
2022/07/17 06:49:50;;;;;;;4.63;1.60;;;15.10;99.90;;;;;;4875651;29;20102;-74
2022/07/17 06:52:15;;;;;;;5.63;2.10;;;15.30;99.90;;;;;;4848604;29;20046;-75
2022/07/17 06:54:41;;;;;;;4.72;2.00;;;15.50;99.90;;;;;;4863061;29;20057;-75
2022/07/17 06:57:07;;;;;;;3.97;1.50;;;15.80;99.90;;;;;;4863101;29;20045;-73
2022/07/17 06:59:33;;;;;;;7.68;1.63;;;16.10;99.90;;;;;;4862778;29;20375;-75
2022/07/17 07:01:59;;;;;;;4.10;1.40;;;16.40;99.90;;;;;;4864689;29;20045;-76
2022/07/17 07:04:25;;;;;;;7.90;1.70;;;16.70;99.90;;;;;;4870548;29;20048;-73
2022/07/17 07:06:51;;;;;;;7.22;1.55;;;16.90;99.90;;;;;;4865534;29;20076;-75
2022/07/17 07:09:16;;;;;;;4.88;1.50;;;17.20;99.90;;;;;;4848461;29;20045;-76
2022/07/17 07:11:42;;;;;;;9.65;1.65;;;17.30;99.90;;;;;;4866318;29;20069;-76
2022/07/17 07:14:08;;;;;;;7.70;1.27;;;17.50;99.90;;;;;;4848271;29;20045;-75
2022/07/17 07:16:34;;;;;;;8.48;1.27;;;17.50;99.90;;;;;;4866147;29;20490;-76
2022/07/17 07:19:00;;;;;;;6.22;1.20;;;17.60;99.90;;;;;;4860980;29;20044;-75
2022/07/17 07:21:26;;;;;;;4.53;1.17;;;17.70;99.90;;;;;;4856053;29;20042;-76
2022/07/17 07:23:56;;;;;;;7.47;1.10;;;17.80;99.90;;;;;;4858225;29;20395;-76
2022/07/17 07:26:22;;;;;;;6.60;1.30;;;17.90;99.90;;;;;;4863309;29;20052;-76
2022/07/17 07:28:48;;;;;;;11.52;1.77;;;18.00;99.90;;;;;;4865746;29;20045;-76
2022/07/17 07:31:16;;;;;;;2.97;1.23;;;18.20;99.90;;;;;;4857694;29;20053;-75
2022/07/17 07:33:42;;;;;;;6.38;1.17;;;18.50;99.90;;;;;;4866976;29;20045;-77
2022/07/17 07:36:08;;;;;;;8.63;1.38;;;18.80;99.90;;;;;;4881974;29;20083;-76
2022/07/17 07:38:34;;;;;;;5.15;1.58;;;19.20;99.90;;;;;;4876216;29;20041;-77
2022/07/17 07:40:59;;;;;;;6.28;1.35;;;19.50;99.90;;;;;;4863858;29;20513;-76
2022/07/17 07:43:25;;;;;;;6.75;1.48;;;19.80;99.90;;;;;;4862080;29;20049;-76
2022/07/17 07:45:51;;;;;;;5.35;1.38;;;20.20;99.90;;;;;;4844774;29;20088;-77
2022/07/17 07:48:16;;;;;;;5.93;1.20;;;20.40;99.80;;;;;;4864227;29;20051;-77
2022/07/17 07:50:42;;;;;;;3.80;1.17;;;20.50;99.20;;;;;;4830831;29;20056;-76
2022/07/17 07:53:08;;;;;;;4.35;1.10;;;20.70;98.80;;;;;;4873608;29;20037;-77
2022/07/17 07:55:34;;;;;;;4.57;1.20;;;20.80;97.90;;;;;;4849631;29;20060;-77
2022/07/17 07:58:11;;;;;;;5.53;1.35;;;20.90;97.50;;;;;;4868809;29;20053;-76
2022/07/17 08:00:38;;;;;;;7.22;1.60;;;20.90;95.60;;;;;;4864790;29;20053;-76
2022/07/17 08:03:04;;;;;;;4.78;1.40;;;21.00;97.00;;;;;;4872878;29;20042;-77
2022/07/17 08:05:30;;;;;;;8.43;1.88;;;21.10;96.70;;;;;;4863351;29;20153;-77
2022/07/17 08:07:56;;;;;;;5.57;1.10;;;21.20;95.90;;;;;;4870818;29;20052;-77
2022/07/17 08:10:22;;;;;;;5.43;1.13;;;21.40;95.60;;;;;;4878626;29;20064;-76
2022/07/17 08:12:47;;;;;;;5.30;1.25;;;21.40;95.70;;;;;;4848565;29;20195;-76
2022/07/17 08:15:15;;;;;;;6.85;1.40;;;21.30;95.30;;;;;;4865910;29;20542;-76
2022/07/17 08:17:40;;;;;;;4.40;1.25;;;21.30;95.40;;;;;;4863451;29;20041;-76
2022/07/17 08:20:07;;;;;;;7.57;1.48;;;21.20;95.60;;;;;;4868653;29;20108;-77
2022/07/17 08:22:32;;;;;;;5.03;1.60;;;21.30;95.20;;;;;;4846246;29;20188;-77
2022/07/17 08:24:58;;;;;;;6.03;1.35;;;21.50;95.20;;;;;;4870730;29;20048;-84
2022/07/17 08:27:24;;;;;;;4.82;1.15;;;21.70;94.80;;;;;;4849739;29;20046;-84
2022/07/17 08:29:50;;;;;;;7.95;1.48;;;21.90;94.40;;;;;;4882530;29;20461;-82
2022/07/17 08:32:15;;;;;;;2.88;0.95;;;22.00;94.10;;;;;;4866044;29;20123;-84
2022/07/17 08:34:41;;;;;;;3.10;1.08;;;22.10;93.40;;;;;;4856307;29;20500;-83
2022/07/17 08:37:07;;;;;;;5.10;1.30;;;22.10;93.00;;;;;;4863167;29;20052;-83
2022/07/17 08:39:32;;;;;;;7.15;1.30;;;22.10;92.70;;;;;;4865860;29;20045;-83
2022/07/17 08:41:58;;;;;;;4.55;1.20;;;22.10;92.50;;;;;;4862979;29;20045;-83
2022/07/17 08:44:24;;;;;;;4.28;1.35;;;22.10;91.70;;;;;;4846894;29;20061;-82
2022/07/17 08:46:51;;;;;;;4.68;1.40;;;22.00;92.10;;;;;;4848606;29;20505;-80
2022/07/17 08:49:21;;;;;;;4.88;1.20;;;22.10;91.90;;;;;;4865345;29;20045;-80
2022/07/17 08:51:47;;;;;;;7.72;1.20;;;22.10;91.20;;;;;;4881195;29;20066;-81
2022/07/17 08:54:14;;;;;;;3.45;1.15;;;22.00;91.60;;;;;;4880760;29;20120;-81
2022/07/17 08:56:40;;;;;;;3.90;1.10;;;22.00;91.50;;;;;;4880486;29;20045;-81
2022/07/17 08:59:06;;;;;;;5.50;1.08;;;21.90;91.10;;;;;;4856370;29;20048;-82
2022/07/17 09:01:31;;;;;;;3.90;1.10;;;21.90;91.20;;;;;;4846342;29;20034;-83
2022/07/17 09:04:00;;;;;;;8.38;1.55;;;21.80;92.10;;;;;;4869773;29;20040;-83
2022/07/17 09:06:26;;;;;;;3.50;1.20;;;21.80;91.60;;;;;;4862312;29;20124;-81
2022/07/17 09:09:07;;;;;;;7.10;1.50;;;22.00;91.40;;;;;;4872307;29;20049;-82
2022/07/17 09:11:50;;;;;;;2.97;1.10;;;21.90;90.20;;;;;;4873526;29;20106;-82
2022/07/17 09:14:17;;;;;;;5.35;1.40;;;21.90;90.70;;;;;;4884813;29;20045;-83
2022/07/17 09:17:01;;;;;;;4.72;1.10;;;21.80;90.20;;;;;;4884309;29;20044;-82
2022/07/17 09:19:35;;;;;;;5.00;0.93;;;21.90;90.60;;;;;;4864872;29;20393;-81
2022/07/17 09:22:07;;;;;;;5.38;1.55;;;22.00;89.40;;;;;;4862847;29;20051;-83
2022/07/17 09:24:48;;;;;;;8.75;3.05;;;22.10;89.80;;;;;;4877799;29;20140;-83
2022/07/17 09:27:29;;;;;;;6.18;1.30;;;22.10;90.10;;;;;;4891829;29;20042;-83
2022/07/17 09:30:07;;;;;;;2.85;1.05;;;22.10;90.70;;;;;;4870445;29;20125;-81
2022/07/17 09:32:35;;;;;;;5.13;1.30;;;22.30;91.60;;;;;;4868194;29;20033;-76
2022/07/17 09:35:02;;;;;;;16.23;5.35;;;22.50;91.20;;;;;;4863402;29;20044;-77
2022/07/17 09:37:30;;;;;;;6.65;1.40;;;22.60;90.50;;;;;;4871304;29;20076;-76
2022/07/17 09:39:57;;;;;;;6.45;1.52;;;22.60;90.50;;;;;;4859774;29;20048;-77
2022/07/17 09:42:31;;;;;;;4.45;1.02;;;22.70;89.10;;;;;;4873707;29;20059;-76
2022/07/17 09:45:01;;;;;;;3.55;1.08;;;22.60;89.50;;;;;;4869172;29;20059;-75
2022/07/17 09:47:29;;;;;;;6.03;1.98;;;22.40;88.20;;;;;;4864995;29;20049;-77
2022/07/17 09:49:56;;;;;;;4.63;1.33;;;22.40;90.10;;;;;;4876460;29;20104;-76
2022/07/17 09:52:29;;;;;;;3.05;0.95;;;22.40;90.30;;;;;;4869462;29;20041;-76
2022/07/17 09:54:56;;;;;;;3.75;1.02;;;22.40;89.20;;;;;;4875660;29;20054;-76
2022/07/17 09:57:33;;;;;;;2.50;1.05;;;22.20;90.40;;;;;;4847070;29;20049;-77
2022/07/17 10:00:02;;;;;;;3.75;1.30;;;22.30;86.80;;;;;;4877175;29;20092;-77
2022/07/17 10:02:28;;;;;;;3.50;1.00;;;22.00;89.70;;;;;;4874810;29;20529;-77
2022/07/17 10:04:54;;;;;;;3.63;1.25;;;22.00;90.30;;;;;;4842841;29;20104;-77
2022/07/17 10:07:20;;;;;;;4.10;1.17;;;21.90;89.90;;;;;;4861816;29;20490;-78
2022/07/17 10:09:47;;;;;;;3.53;1.20;;;21.90;90.50;;;;;;4854341;29;20037;-77
2022/07/17 10:12:14;;;;;;;3.67;1.13;;;21.90;90.00;;;;;;4861370;29;21373;-77
2022/07/17 10:14:41;;;;;;;4.45;1.30;;;22.00;88.70;;;;;;4872445;29;20046;-75
2022/07/17 10:17:12;;;;;;;4.38;1.13;;;21.90;88.50;;;;;;4860311;29;20053;-77
2022/07/17 10:19:53;;;;;;;7.57;1.50;;;21.90;88.70;;;;;;4859120;29;20041;-76
2022/07/17 10:22:20;;;;;;;2.67;1.15;;;21.90;87.50;;;;;;4868160;29;20440;-77
2022/07/17 10:24:48;;;;;;;4.80;1.50;;;21.90;88.80;;;;;;4860947;29;20056;-77
2022/07/17 10:27:19;;;;;;;3.80;1.13;;;21.90;88.10;;;;;;4877615;29;20136;-77
2022/07/17 10:29:45;;;;;;;3.30;1.33;;;21.90;87.50;;;;;;4861966;29;20541;-77
2022/07/17 10:32:19;;;;;;;2.42;1.17;;;21.90;87.70;;;;;;4861493;29;20075;-79
2022/07/17 10:34:53;;;;;;;4.03;1.17;;;21.90;88.20;;;;;;4862306;29;20048;-77
2022/07/17 10:37:23;;;;;;;3.97;1.63;;;21.90;87.60;;;;;;4873208;29;20046;-78
2022/07/17 10:40:11;;;;;;;2.67;1.15;;;21.90;86.80;;;;;;4859855;29;20053;-77
2022/07/17 10:43:04;;;;;;;3.25;1.13;;;22.00;87.20;;;;;;4859854;29;20401;-77
2022/07/17 10:45:45;;;;;;;4.43;1.30;;;21.90;87.20;;;;;;4860092;29;20068;-78
2022/07/17 10:48:19;;;;;;;1.77;1.10;;;22.00;87.60;;;;;;4877688;29;20045;-80
2022/07/17 10:50:45;;;;;;;10.07;1.73;;;22.00;87.60;;;;;;4859873;29;20045;-77
2022/07/17 10:53:17;;;;;;;5.10;1.80;;;22.10;87.00;;;;;;4859238;29;20069;-76
2022/07/17 10:55:48;;;;;;;8.00;1.60;;;22.10;87.90;;;;;;4859016;29;20042;-77
2022/07/17 10:58:24;;;;;;;5.50;1.50;;;22.00;87.00;;;;;;4861362;29;20124;-78
2022/07/17 11:01:09;;;;;;;3.53;1.35;;;22.00;87.10;;;;;;4862276;29;20467;-77
2022/07/17 11:03:38;;;;;;;2.45;1.25;;;22.00;87.00;;;;;;4859195;29;20055;-79
2022/07/17 11:06:14;;;;;;;5.95;1.30;;;22.00;86.20;;;;;;4875029;29;20190;-77
2022/07/17 11:08:48;;;;;;;;;;;22.00;85.80;;;;;;4877422;29;20101;-83
2022/07/17 11:11:15;;;;;;;5.25;1.40;;;21.90;86.40;;;;;;4857168;29;20414;-85
2022/07/17 11:13:41;;;;;;;4.93;1.50;;;21.80;87.30;;;;;;4864186;29;20042;-85
2022/07/17 11:16:07;;;;;;;4.38;1.40;;;21.80;87.30;;;;;;4860764;29;20516;-79
2022/07/17 11:18:34;;;;;;;3.50;1.48;;;21.80;88.20;;;;;;4828287;29;20056;-79
2022/07/17 11:21:01;;;;;;;3.17;1.38;;;21.90;88.60;;;;;;4870433;29;20053;-85
2022/07/17 11:23:29;;;;;;;3.83;1.27;;;22.00;88.90;;;;;;4880230;29;20045;-85
2022/07/17 11:26:06;;;;;;;5.80;1.38;;;22.20;89.50;;;;;;4864972;29;20335;-86
2022/07/17 11:28:40;;;;;;;6.82;2.03;;;22.40;89.60;;;;;;4873222;29;20525;-86
2022/07/17 11:31:20;;;;;;;4.50;1.52;;;22.40;88.10;;;;;;4875873;29;20053;-78
2022/07/17 11:33:50;;;;;;;4.88;1.40;;;22.40;87.80;;;;;;4844071;29;20034;-79
2022/07/17 11:36:25;;;;;;;4.90;1.40;;;22.50;87.70;;;;;;4860811;29;20051;-77
2022/07/17 11:38:52;;;;;;;2.73;1.20;;;22.50;87.00;;;;;;4863967;29;20053;-86
2022/07/17 11:41:18;;;;;;;2.60;1.08;;;22.50;87.20;;;;;;4878743;29;20404;-85
2022/07/17 11:43:45;;;;;;;5.05;1.58;;;22.60;88.40;;;;;;4868053;29;20084;-85
2022/07/17 11:46:11;;;;;;;5.00;1.50;;;22.70;88.30;;;;;;4864698;29;20057;-86
2022/07/17 11:48:43;;;;;;;6.07;1.67;;;22.80;87.50;;;;;;4881639;29;20086;-86
2022/07/17 11:51:10;;;;;;;3.67;1.60;;;22.90;87.70;;;;;;4866061;29;20502;-85
2022/07/17 11:53:38;;;;;;;3.63;1.50;;;23.10;86.90;;;;;;4866631;29;20049;-87
2022/07/17 11:56:04;;;;;;;3.13;1.40;;;23.10;87.10;;;;;;4882135;29;20080;-87
2022/07/17 11:58:42;;;;;;;3.28;1.65;;;23.10;86.10;;;;;;4866166;29;20044;-87
2022/07/17 12:01:08;;;;;;;12.57;2.22;;;23.20;83.80;;;;;;4858999;29;20048;-87
2022/07/17 12:03:33;;;;;;;4.82;1.40;;;23.20;83.50;;;;;;4865860;29;20532;-86
2022/07/17 12:05:59;;;;;;;3.15;1.80;;;23.30;82.70;;;;;;4881360;29;20041;-86
2022/07/17 12:08:25;;;;;;;6.75;2.08;;;23.20;82.70;;;;;;4882093;29;20045;-86
2022/07/17 12:11:01;;;;;;;4.32;1.63;;;23.30;81.10;;;;;;4881408;29;20037;-87
2022/07/17 12:13:43;;;;;;;4.38;1.77;;;23.30;82.20;;;;;;4875176;29;20069;-85
2022/07/17 12:16:20;;;;;;;4.28;1.85;;;23.30;83.70;;;;;;4862922;29;20041;-87
2022/07/17 12:18:56;;;;;;;3.50;1.80;;;23.40;83.40;;;;;;4864033;29;20443;-86
2022/07/17 12:21:22;;;;;;;3.53;1.73;;;23.40;81.80;;;;;;4880896;29;20052;-86
2022/07/17 12:23:58;;;;;;;4.10;1.67;;;23.40;81.40;;;;;;4882636;29;20041;-84
2022/07/17 12:26:23;;;;;;;4.93;1.92;;;23.60;81.50;;;;;;4883467;29;20410;-84
2022/07/17 12:28:49;;;;;;;3.85;1.60;;;23.80;82.10;;;;;;4883803;29;20051;-84
2022/07/17 12:31:15;;;;;;;2.97;1.75;;;24.00;81.70;;;;;;4863325;29;20028;-85
2022/07/17 12:33:42;;;;;;;5.65;1.80;;;24.20;82.00;;;;;;4894377;29;20038;-84
2022/07/17 12:36:08;;;;;;;4.88;1.83;;;24.40;81.60;;;;;;4879259;29;20045;-77
2022/07/17 12:38:34;;;;;;;4.28;1.77;;;24.60;82.20;;;;;;4851070;29;20059;-78
2022/07/17 12:41:00;;;;;;;5.07;2.00;;;24.90;81.30;;;;;;4864825;29;20102;-78
2022/07/17 12:43:26;;;;;;;4.63;1.95;;;25.10;80.70;;;;;;4870863;29;20041;-85
2022/07/17 12:45:52;;;;;;;4.28;2.20;;;25.50;80.20;;;;;;4829930;29;1147918;-84
2022/07/17 12:48:17;;;;;;;3.80;2.05;;;25.80;79.50;;;;;;4851923;29;20053;-85